createdAt,value
2016-12-25T00:00:04.463Z,25.82
2016-12-25T00:00:21.668Z,25.87
2016-12-25T00:00:38.855Z,25.9
2016-12-25T00:00:56.012Z,25.87
2016-12-25T00:01:13.172Z,25.83
2016-12-25T00:01:30.363Z,25.84
2016-12-25T00:01:47.531Z,25.84
2016-12-25T00:02:04.685Z,25.82
2016-12-25T00:02:21.866Z,25.9
2016-12-25T00:02:39.093Z,25.84
2016-12-25T00:02:56.261Z,25.79
2016-12-25T00:03:13.420Z,25.79
2016-12-25T00:03:30.619Z,25.83
2016-12-25T00:03:47.799Z,25.84
2016-12-25T00:04:04.989Z,25.87
2016-12-25T00:04:22.172Z,25.84
2016-12-25T00:04:39.361Z,25.86
2016-12-25T00:04:56.537Z,25.78
2016-12-25T00:05:14.316Z,25.89
2016-12-25T00:05:31.498Z,25.82
2016-12-25T00:05:48.676Z,25.87
2016-12-25T00:06:06.425Z,25.83
2016-12-25T00:06:23.605Z,25.84
2016-12-25T00:06:40.791Z,25.75
2016-12-25T00:06:57.984Z,25.72
2016-12-25T00:07:15.172Z,25.68
2016-12-25T00:07:32.324Z,25.77
2016-12-25T00:07:49.520Z,25.75
2016-12-25T00:08:06.720Z,25.64
2016-12-25T00:08:23.892Z,25.77
2016-12-25T00:08:41.074Z,25.57
2016-12-25T00:08:58.252Z,25.56
2016-12-25T00:09:15.424Z,25.59
2016-12-25T00:09:32.604Z,25.55
2016-12-25T00:09:49.773Z,25.67
2016-12-25T00:10:06.951Z,25.64
2016-12-25T00:10:24.122Z,25.68
2016-12-25T00:10:41.289Z,25.67
2016-12-25T00:10:58.453Z,25.74
2016-12-25T00:11:15.645Z,25.64
2016-12-25T00:11:32.828Z,25.72
2016-12-25T00:11:50.032Z,25.67
2016-12-25T00:12:07.764Z,25.75
2016-12-25T00:12:24.963Z,25.7
2016-12-25T00:12:42.132Z,25.72
2016-12-25T00:12:59.308Z,25.75
2016-12-25T00:13:16.456Z,25.77
2016-12-25T00:13:33.604Z,25.78
2016-12-25T00:13:50.773Z,25.82
2016-12-25T00:14:07.946Z,25.79
2016-12-25T00:14:25.108Z,25.82
2016-12-25T00:14:42.304Z,25.78
2016-12-25T00:14:59.492Z,25.83
2016-12-25T00:15:16.658Z,25.86
2016-12-25T00:15:33.819Z,25.83
2016-12-25T00:15:50.982Z,25.86
2016-12-25T00:16:08.152Z,25.71
2016-12-25T00:16:25.356Z,25.5
2016-12-25T00:16:42.524Z,25.56
2016-12-25T00:16:59.684Z,25.53
2016-12-25T00:17:16.860Z,25.6
2016-12-25T00:17:34.067Z,25.65
2016-12-25T00:17:51.242Z,25.52
2016-12-25T00:18:08.406Z,25.64
2016-12-25T00:18:25.589Z,25.53
2016-12-25T00:18:42.751Z,25.56
2016-12-25T00:18:59.904Z,25.56
2016-12-25T00:19:17.056Z,25.65
2016-12-25T00:19:34.237Z,25.64
2016-12-25T00:19:51.405Z,25.59
2016-12-25T00:20:08.572Z,25.57
2016-12-25T00:20:25.746Z,25.53
2016-12-25T00:20:42.922Z,25.56
2016-12-25T00:21:00.088Z,25.6
2016-12-25T00:21:17.264Z,25.56
2016-12-25T00:21:34.435Z,25.56
2016-12-25T00:21:51.614Z,25.49
2016-12-25T00:22:08.838Z,25.56
2016-12-25T00:22:26.021Z,25.56
2016-12-25T00:22:43.209Z,25.5
2016-12-25T00:23:00.390Z,25.56
2016-12-25T00:23:17.548Z,25.59
2016-12-25T00:23:35.277Z,25.56
2016-12-25T00:23:52.509Z,25.52
2016-12-25T00:24:09.681Z,25.55
2016-12-25T00:24:26.859Z,25.53
2016-12-25T00:24:44.043Z,25.53
2016-12-25T00:25:01.267Z,25.52
2016-12-25T00:25:18.434Z,25.38
2016-12-25T00:25:35.598Z,25.46
2016-12-25T00:25:52.778Z,25.42
2016-12-25T00:26:09.948Z,25.34
2016-12-25T00:26:27.155Z,25.37
2016-12-25T00:26:44.335Z,25.37
2016-12-25T00:27:01.490Z,25.47
2016-12-25T00:27:18.674Z,25.37
2016-12-25T00:27:35.878Z,25.41
2016-12-25T00:27:53.053Z,25.34
2016-12-25T00:28:10.243Z,25.37
2016-12-25T00:28:27.443Z,25.28
2016-12-25T00:28:44.721Z,25.31
2016-12-25T00:29:01.907Z,25.25
2016-12-25T00:29:19.077Z,25.31
2016-12-25T00:29:36.254Z,25.32
2016-12-25T00:29:53.434Z,25.4
2016-12-25T00:30:10.602Z,25.3
2016-12-25T00:30:27.798Z,25.23
2016-12-25T00:30:45.561Z,25.35
2016-12-25T00:31:02.761Z,25.34
2016-12-25T00:31:19.964Z,25.22
2016-12-25T00:31:37.141Z,25.27
2016-12-25T00:31:54.376Z,25.22
2016-12-25T00:32:11.538Z,25.23
2016-12-25T00:32:28.714Z,25.23
2016-12-25T00:32:45.894Z,25.22
2016-12-25T00:33:03.075Z,25.22
2016-12-25T00:33:20.242Z,25.25
2016-12-25T00:33:37.424Z,25.22
2016-12-25T00:33:54.587Z,25.23
2016-12-25T00:34:11.790Z,25.22
2016-12-25T00:34:28.977Z,25.27
2016-12-25T00:34:46.179Z,25.19
2016-12-25T00:35:03.368Z,25.15
2016-12-25T00:35:20.533Z,25.08
2016-12-25T00:35:37.697Z,25.19
2016-12-25T00:35:54.871Z,25.15
2016-12-25T00:36:12.083Z,25.27
2016-12-25T00:36:29.280Z,25.2
2016-12-25T00:36:46.449Z,25.19
2016-12-25T00:37:03.617Z,25.25
2016-12-25T00:37:20.804Z,25.28
2016-12-25T00:37:38.019Z,25.22
2016-12-25T00:37:55.195Z,25.35
2016-12-25T00:38:12.392Z,25.23
2016-12-25T00:38:29.571Z,25.34
2016-12-25T00:38:46.737Z,25.25
2016-12-25T00:39:03.916Z,25.3
2016-12-25T00:39:21.650Z,25.3
2016-12-25T00:39:38.835Z,25.28
2016-12-25T00:39:56.031Z,25.37
2016-12-25T00:40:13.771Z,25.34
2016-12-25T00:40:30.963Z,25.3
2016-12-25T00:40:48.134Z,25.31
2016-12-25T00:41:05.311Z,25.35
2016-12-25T00:41:22.480Z,25.27
2016-12-25T00:41:39.653Z,25.2
2016-12-25T00:41:56.802Z,25.27
2016-12-25T00:42:13.997Z,25.27
2016-12-25T00:42:31.167Z,25.31
2016-12-25T00:42:48.336Z,25.25
2016-12-25T00:43:05.527Z,25.28
2016-12-25T00:43:22.710Z,25.28
2016-12-25T00:43:39.878Z,25.3
2016-12-25T00:43:57.054Z,25.23
2016-12-25T00:44:14.221Z,25.31
2016-12-25T00:44:31.387Z,25.23
2016-12-25T00:44:48.559Z,25.16
2016-12-25T00:45:05.761Z,25.08
2016-12-25T00:45:22.958Z,25
2016-12-25T00:45:40.150Z,25.08
2016-12-25T00:45:57.306Z,25.05
2016-12-25T00:46:14.497Z,25.01
2016-12-25T00:46:31.671Z,25.02
2016-12-25T00:46:48.870Z,24.98
2016-12-25T00:47:06.071Z,24.9
2016-12-25T00:47:23.250Z,24.82
2016-12-25T00:47:40.421Z,24.82
2016-12-25T00:47:57.613Z,24.82
2016-12-25T00:48:14.815Z,24.66
2016-12-25T00:48:31.986Z,24.79
2016-12-25T00:48:49.123Z,24.75
2016-12-25T00:49:06.875Z,24.76
2016-12-25T00:49:24.044Z,24.75
2016-12-25T00:49:41.258Z,24.82
2016-12-25T00:49:58.442Z,24.8
2016-12-25T00:50:15.643Z,24.66
2016-12-25T00:50:32.834Z,24.73
2016-12-25T00:50:50.001Z,24.75
2016-12-25T00:51:07.201Z,24.79
2016-12-25T00:51:24.376Z,24.76
2016-12-25T00:51:41.561Z,24.76
2016-12-25T00:51:58.735Z,24.76
2016-12-25T00:52:16.464Z,24.71
2016-12-25T00:52:33.645Z,24.75
2016-12-25T00:52:50.846Z,24.73
2016-12-25T00:53:08.146Z,24.83
2016-12-25T00:53:25.319Z,24.93
2016-12-25T00:53:42.534Z,24.83
2016-12-25T00:53:59.712Z,24.9
2016-12-25T00:54:16.926Z,25.05
2016-12-25T00:54:34.093Z,24.93
2016-12-25T00:54:51.262Z,25.01
2016-12-25T00:55:08.406Z,25.04
2016-12-25T00:55:25.594Z,24.97
2016-12-25T00:55:42.797Z,25.15
2016-12-25T00:55:59.981Z,25.12
2016-12-25T00:56:17.146Z,25.1
2016-12-25T00:56:34.332Z,25.12
2016-12-25T00:56:51.505Z,25.1
2016-12-25T00:57:08.683Z,25.17
2016-12-25T00:57:25.855Z,25.16
2016-12-25T00:57:43.575Z,25.09
2016-12-25T00:58:00.726Z,25.22
2016-12-25T00:58:17.938Z,25.17
2016-12-25T00:58:35.116Z,25.25
2016-12-25T00:58:52.284Z,25.15
2016-12-25T00:59:09.476Z,25.25
2016-12-25T00:59:26.674Z,25.27
2016-12-25T00:59:43.935Z,25.25
2016-12-25T01:00:01.124Z,25.27
2016-12-25T01:00:18.319Z,25.23
2016-12-25T01:00:35.487Z,25.31
2016-12-25T01:00:52.633Z,25.3
2016-12-25T01:01:09.828Z,25.3
2016-12-25T01:01:27.050Z,25.15
2016-12-25T01:01:44.237Z,25.27
2016-12-25T01:02:01.384Z,25.22
2016-12-25T01:02:18.556Z,25.15
2016-12-25T01:02:35.758Z,25.19
2016-12-25T01:02:52.934Z,25.22
2016-12-25T01:03:10.113Z,25.27
2016-12-25T01:03:27.285Z,25.16
2016-12-25T01:03:44.504Z,25.15
2016-12-25T01:04:01.676Z,25.2
2016-12-25T01:04:18.857Z,25.17
2016-12-25T01:04:36.048Z,25.16
2016-12-25T01:04:53.231Z,25.13
2016-12-25T01:05:10.399Z,25.15
2016-12-25T01:05:27.618Z,25.2
2016-12-25T01:05:44.811Z,25.23
2016-12-25T01:06:01.990Z,25.25
2016-12-25T01:06:19.190Z,25.12
2016-12-25T01:06:36.381Z,25.2
2016-12-25T01:06:53.533Z,25.15
2016-12-25T01:07:10.707Z,25.16
2016-12-25T01:07:27.883Z,25.08
2016-12-25T01:07:45.077Z,25.17
2016-12-25T01:08:02.252Z,25.1
2016-12-25T01:08:19.440Z,25.08
2016-12-25T01:08:36.985Z,25.08
2016-12-25T01:08:54.169Z,25.12
2016-12-25T01:09:11.355Z,25.09
2016-12-25T01:09:28.560Z,25.22
2016-12-25T01:09:45.757Z,25.17
2016-12-25T01:10:02.933Z,25.2
2016-12-25T01:10:20.109Z,25.3
2016-12-25T01:10:37.298Z,25.23
2016-12-25T01:10:54.478Z,25.28
2016-12-25T01:11:11.647Z,25.23
2016-12-25T01:11:28.858Z,25.25
2016-12-25T01:11:46.034Z,25.22
2016-12-25T01:12:03.208Z,25.2
2016-12-25T01:12:20.399Z,25.1
2016-12-25T01:12:37.590Z,25.23
2016-12-25T01:12:54.773Z,25.16
2016-12-25T01:13:11.952Z,25.13
2016-12-25T01:13:29.168Z,25.19
2016-12-25T01:13:46.368Z,25.1
2016-12-25T01:14:03.574Z,25.27
2016-12-25T01:14:20.771Z,25.2
2016-12-25T01:14:37.923Z,25.05
2016-12-25T01:14:55.092Z,25.09
2016-12-25T01:15:12.256Z,25.13
2016-12-25T01:15:29.433Z,25
2016-12-25T01:15:46.611Z,25.01
2016-12-25T01:16:03.783Z,24.97
2016-12-25T01:16:20.944Z,25
2016-12-25T01:16:38.118Z,25.09
2016-12-25T01:16:55.294Z,24.97
2016-12-25T01:17:12.512Z,24.95
2016-12-25T01:17:29.680Z,24.98
2016-12-25T01:17:46.861Z,25
2016-12-25T01:18:04.048Z,24.98
2016-12-25T01:18:21.213Z,24.98
2016-12-25T01:18:38.408Z,24.97
2016-12-25T01:18:55.569Z,24.9
2016-12-25T01:19:12.740Z,25.02
2016-12-25T01:19:29.924Z,24.88
2016-12-25T01:19:47.115Z,24.83
2016-12-25T01:20:04.287Z,24.91
2016-12-25T01:20:21.510Z,24.85
2016-12-25T01:20:38.703Z,24.93
2016-12-25T01:20:55.853Z,24.88
2016-12-25T01:21:13.032Z,24.66
2016-12-25T01:21:30.183Z,24.63
2016-12-25T01:21:47.370Z,24.71
2016-12-25T01:22:04.557Z,24.63
2016-12-25T01:22:21.749Z,24.66
2016-12-25T01:22:38.943Z,24.54
2016-12-25T01:22:56.093Z,24.66
2016-12-25T01:23:13.255Z,24.6
2016-12-25T01:23:30.535Z,24.69
2016-12-25T01:23:47.736Z,24.69
2016-12-25T01:24:04.947Z,24.64
2016-12-25T01:24:22.147Z,24.57
2016-12-25T01:24:39.354Z,24.59
2016-12-25T01:24:56.520Z,24.56
2016-12-25T01:25:13.705Z,24.62
2016-12-25T01:25:30.906Z,24.62
2016-12-25T01:25:48.086Z,24.69
2016-12-25T01:26:05.268Z,24.67
2016-12-25T01:26:22.467Z,24.73
2016-12-25T01:26:39.655Z,24.76
2016-12-25T01:26:56.839Z,24.71
2016-12-25T01:27:14.028Z,24.64
2016-12-25T01:27:31.219Z,24.67
2016-12-25T01:27:48.397Z,24.67
2016-12-25T01:28:05.594Z,24.79
2016-12-25T01:28:22.793Z,24.75
2016-12-25T01:28:39.984Z,24.71
2016-12-25T01:28:57.171Z,24.66
2016-12-25T01:29:14.348Z,24.73
2016-12-25T01:29:31.548Z,24.73
2016-12-25T01:29:48.748Z,24.75
2016-12-25T01:30:05.954Z,24.82
2016-12-25T01:30:23.133Z,24.69
2016-12-25T01:30:40.325Z,24.79
2016-12-25T01:30:57.513Z,24.8
2016-12-25T01:31:14.740Z,24.8
2016-12-25T01:31:31.924Z,24.83
2016-12-25T01:31:49.083Z,24.86
2016-12-25T01:32:06.276Z,24.88
2016-12-25T01:32:23.428Z,24.85
2016-12-25T01:32:40.588Z,24.9
2016-12-25T01:32:57.773Z,24.98
2016-12-25T01:33:15.009Z,25.02
2016-12-25T01:33:32.339Z,24.93
2016-12-25T01:33:49.523Z,24.93
2016-12-25T01:34:06.699Z,25
2016-12-25T01:34:23.862Z,24.97
2016-12-25T01:34:41.045Z,24.97
2016-12-25T01:34:58.229Z,25.08
2016-12-25T01:35:15.393Z,24.98
2016-12-25T01:35:32.562Z,25.02
2016-12-25T01:35:49.712Z,25.08
2016-12-25T01:36:06.898Z,25.04
2016-12-25T01:36:24.051Z,24.93
2016-12-25T01:36:41.235Z,25.08
2016-12-25T01:36:58.439Z,25.05
2016-12-25T01:37:15.589Z,25.05
2016-12-25T01:37:32.771Z,25.09
2016-12-25T01:37:49.954Z,25.05
2016-12-25T01:38:07.116Z,25.08
2016-12-25T01:38:24.285Z,25.05
2016-12-25T01:38:42.031Z,25.12
2016-12-25T01:38:59.779Z,25.08
2016-12-25T01:39:16.984Z,25.13
2016-12-25T01:39:34.151Z,25.05
2016-12-25T01:39:51.279Z,25.19
2016-12-25T01:40:08.503Z,25.17
2016-12-25T01:40:25.670Z,25.13
2016-12-25T01:40:42.860Z,25.13
2016-12-25T01:41:00.068Z,25.12
2016-12-25T01:41:17.259Z,25.1
2016-12-25T01:41:34.466Z,25.08
2016-12-25T01:41:51.614Z,25.02
2016-12-25T01:42:08.793Z,25.16
2016-12-25T01:42:25.992Z,25.09
2016-12-25T01:42:43.130Z,25.13
2016-12-25T01:43:00.310Z,25.13
2016-12-25T01:43:17.532Z,25.12
2016-12-25T01:43:34.858Z,25.05
2016-12-25T01:43:52.031Z,25.08
2016-12-25T01:44:09.215Z,25.1
2016-12-25T01:44:26.390Z,24.97
2016-12-25T01:44:43.574Z,24.98
2016-12-25T01:45:00.770Z,24.98
2016-12-25T01:45:17.939Z,25
2016-12-25T01:45:35.128Z,24.95
2016-12-25T01:45:52.315Z,24.97
2016-12-25T01:46:09.500Z,24.95
2016-12-25T01:46:26.681Z,24.9
2016-12-25T01:46:43.841Z,24.9
2016-12-25T01:47:01.030Z,24.83
2016-12-25T01:47:18.241Z,24.9
2016-12-25T01:47:35.401Z,24.88
2016-12-25T01:47:52.583Z,24.85
2016-12-25T01:48:09.758Z,24.88
2016-12-25T01:48:26.902Z,24.85
2016-12-25T01:48:44.227Z,24.79
2016-12-25T01:49:01.405Z,24.82
2016-12-25T01:49:18.586Z,24.75
2016-12-25T01:49:35.759Z,24.76
2016-12-25T01:49:52.906Z,24.73
2016-12-25T01:50:10.087Z,24.79
2016-12-25T01:50:27.238Z,24.76
2016-12-25T01:50:44.417Z,24.75
2016-12-25T01:51:01.591Z,24.8
2016-12-25T01:51:18.786Z,24.75
2016-12-25T01:51:35.993Z,24.71
2016-12-25T01:51:53.164Z,24.73
2016-12-25T01:52:10.330Z,24.67
2016-12-25T01:52:27.506Z,24.69
2016-12-25T01:52:44.694Z,24.62
2016-12-25T01:53:01.869Z,24.64
2016-12-25T01:53:19.051Z,24.76
2016-12-25T01:53:36.375Z,24.71
2016-12-25T01:53:53.565Z,24.64
2016-12-25T01:54:11.302Z,24.75
2016-12-25T01:54:29.082Z,24.75
2016-12-25T01:54:46.278Z,24.78
2016-12-25T01:55:03.447Z,24.67
2016-12-25T01:55:20.665Z,24.63
2016-12-25T01:55:37.838Z,24.71
2016-12-25T01:55:54.996Z,24.71
2016-12-25T01:56:12.163Z,24.64
2016-12-25T01:56:29.334Z,24.71
2016-12-25T01:56:46.510Z,24.62
2016-12-25T01:57:03.665Z,24.52
2016-12-25T01:57:20.847Z,24.54
2016-12-25T01:57:38.027Z,24.41
2016-12-25T01:57:55.199Z,24.45
2016-12-25T01:58:12.362Z,24.42
2016-12-25T01:58:29.536Z,24.38
2016-12-25T01:58:46.700Z,24.38
2016-12-25T01:59:03.879Z,24.29
2016-12-25T01:59:21.055Z,24.26
2016-12-25T01:59:38.233Z,24.27
2016-12-25T01:59:55.417Z,24.29
2016-12-25T02:00:12.607Z,24.22
2016-12-25T02:00:29.785Z,24.2
2016-12-25T02:00:46.942Z,24.25
2016-12-25T02:01:04.116Z,24.25
2016-12-25T02:01:21.288Z,24.15
2016-12-25T02:01:38.470Z,24.04
2016-12-25T02:01:55.644Z,24.05
2016-12-25T02:02:12.835Z,24.11
2016-12-25T02:02:30.017Z,24.07
2016-12-25T02:02:47.186Z,24.08
2016-12-25T02:03:04.385Z,24.15
2016-12-25T02:03:21.582Z,24.12
2016-12-25T02:03:38.731Z,24.11
2016-12-25T02:03:55.894Z,24.05
2016-12-25T02:04:13.054Z,24.05
2016-12-25T02:04:30.228Z,24.11
2016-12-25T02:04:47.402Z,24.1
2016-12-25T02:05:04.587Z,24.05
2016-12-25T02:05:21.752Z,24.1
2016-12-25T02:05:38.920Z,24.1
2016-12-25T02:05:56.086Z,24.19
2016-12-25T02:06:13.269Z,24.22
2016-12-25T02:06:30.447Z,24.23
2016-12-25T02:06:47.628Z,24.08
2016-12-25T02:07:04.807Z,24.07
2016-12-25T02:07:22.525Z,24.23
2016-12-25T02:07:39.691Z,24.11
2016-12-25T02:07:56.860Z,24.16
2016-12-25T02:08:14.609Z,24.15
2016-12-25T02:08:31.797Z,24.12
2016-12-25T02:08:48.971Z,24.17
2016-12-25T02:09:06.133Z,24.12
2016-12-25T02:09:23.327Z,24.15
2016-12-25T02:09:40.524Z,24.15
2016-12-25T02:09:57.713Z,24.04
2016-12-25T02:10:14.944Z,24.08
2016-12-25T02:10:32.125Z,24.05
2016-12-25T02:10:49.331Z,23.98
2016-12-25T02:11:06.493Z,24.08
2016-12-25T02:11:24.242Z,24
2016-12-25T02:11:41.425Z,24.08
2016-12-25T02:11:58.604Z,24.19
2016-12-25T02:12:15.804Z,24.23
2016-12-25T02:12:32.979Z,24.23
2016-12-25T02:12:50.163Z,24.3
2016-12-25T02:13:07.323Z,24.25
2016-12-25T02:13:24.546Z,24.17
2016-12-25T02:13:41.734Z,24.23
2016-12-25T02:13:58.930Z,24.23
2016-12-25T02:14:16.144Z,24.34
2016-12-25T02:14:33.324Z,24.34
2016-12-25T02:14:50.497Z,24.35
2016-12-25T02:15:07.656Z,24.27
2016-12-25T02:15:24.842Z,24.34
2016-12-25T02:15:41.995Z,24.34
2016-12-25T02:15:59.189Z,24.3
2016-12-25T02:16:16.373Z,24.32
2016-12-25T02:16:33.591Z,24.23
2016-12-25T02:16:50.778Z,24.32
2016-12-25T02:17:07.951Z,24.34
2016-12-25T02:17:25.147Z,24.34
2016-12-25T02:17:42.335Z,24.32
2016-12-25T02:17:59.519Z,24.35
2016-12-25T02:18:16.694Z,24.4
2016-12-25T02:18:33.876Z,24.32
2016-12-25T02:18:51.070Z,24.35
2016-12-25T02:19:08.245Z,24.32
2016-12-25T02:19:25.422Z,24.32
2016-12-25T02:19:42.605Z,24.29
2016-12-25T02:19:59.827Z,24.23
2016-12-25T02:20:17.034Z,24.26
2016-12-25T02:20:34.214Z,24.25
2016-12-25T02:20:51.373Z,24.29
2016-12-25T02:21:08.565Z,24.19
2016-12-25T02:21:25.748Z,24.23
2016-12-25T02:21:42.938Z,24.27
2016-12-25T02:22:00.127Z,24.17
2016-12-25T02:22:17.321Z,24.22
2016-12-25T02:22:34.539Z,24.26
2016-12-25T02:22:51.725Z,24.22
2016-12-25T02:23:08.913Z,24.17
2016-12-25T02:23:26.136Z,24.12
2016-12-25T02:23:43.534Z,24.17
2016-12-25T02:24:00.694Z,24.22
2016-12-25T02:24:17.871Z,24.2
2016-12-25T02:24:35.047Z,24.23
2016-12-25T02:24:52.223Z,24.15
2016-12-25T02:25:09.401Z,24.23
2016-12-25T02:25:26.581Z,24.2
2016-12-25T02:25:43.772Z,24.08
2016-12-25T02:26:00.927Z,24.27
2016-12-25T02:26:18.123Z,24.16
2016-12-25T02:26:35.286Z,24.23
2016-12-25T02:26:52.486Z,24.16
2016-12-25T02:27:09.655Z,24.17
2016-12-25T02:27:26.822Z,24.2
2016-12-25T02:27:44.005Z,24.22
2016-12-25T02:28:01.195Z,24.12
2016-12-25T02:28:18.363Z,24.17
2016-12-25T02:28:35.680Z,24.08
2016-12-25T02:28:52.857Z,24.1
2016-12-25T02:29:10.034Z,24.02
2016-12-25T02:29:27.215Z,24.05
2016-12-25T02:29:44.386Z,24.11
2016-12-25T02:30:02.139Z,24.05
2016-12-25T02:30:19.339Z,24.05
2016-12-25T02:30:36.525Z,24.05
2016-12-25T02:30:53.703Z,24.07
2016-12-25T02:31:10.903Z,24.02
2016-12-25T02:31:28.072Z,23.98
2016-12-25T02:31:45.242Z,24.1
2016-12-25T02:32:02.410Z,24.05
2016-12-25T02:32:19.592Z,24.08
2016-12-25T02:32:36.767Z,24.04
2016-12-25T02:32:53.954Z,24.1
2016-12-25T02:33:11.164Z,24
2016-12-25T02:33:28.345Z,24
2016-12-25T02:33:45.548Z,24.02
2016-12-25T02:34:02.752Z,24.16
2016-12-25T02:34:19.911Z,24.05
2016-12-25T02:34:37.100Z,24.04
2016-12-25T02:34:54.290Z,24
2016-12-25T02:35:11.479Z,24.01
2016-12-25T02:35:28.683Z,24.02
2016-12-25T02:35:45.844Z,24.1
2016-12-25T02:36:03.040Z,23.98
2016-12-25T02:36:20.243Z,24.04
2016-12-25T02:36:37.404Z,24.01
2016-12-25T02:36:55.145Z,24.04
2016-12-25T02:37:12.311Z,23.98
2016-12-25T02:37:29.480Z,24
2016-12-25T02:37:46.654Z,23.98
2016-12-25T02:38:03.834Z,23.95
2016-12-25T02:38:21.022Z,23.98
2016-12-25T02:38:38.217Z,24
2016-12-25T02:38:55.988Z,24.07
2016-12-25T02:39:13.148Z,24.05
2016-12-25T02:39:30.336Z,24.11
2016-12-25T02:39:47.518Z,24.07
2016-12-25T02:40:04.715Z,24.08
2016-12-25T02:40:21.922Z,24
2016-12-25T02:40:39.090Z,24.01
2016-12-25T02:40:56.289Z,24.01
2016-12-25T02:41:13.470Z,23.98
2016-12-25T02:41:30.644Z,24.11
2016-12-25T02:41:47.815Z,24.07
2016-12-25T02:42:05.569Z,24.04
2016-12-25T02:42:22.743Z,24.05
2016-12-25T02:42:39.924Z,24.01
2016-12-25T02:42:57.086Z,24.08
2016-12-25T02:43:14.266Z,24.02
2016-12-25T02:43:31.454Z,24.1
2016-12-25T02:43:49.381Z,24.05
2016-12-25T02:44:06.570Z,24.05
2016-12-25T02:44:23.744Z,23.97
2016-12-25T02:44:40.914Z,24.08
2016-12-25T02:44:58.090Z,24.04
2016-12-25T02:45:15.265Z,24
2016-12-25T02:45:32.448Z,24.08
2016-12-25T02:45:49.604Z,24.05
2016-12-25T02:46:06.798Z,24
2016-12-25T02:46:23.991Z,24.01
2016-12-25T02:46:41.163Z,24
2016-12-25T02:46:58.327Z,24.01
2016-12-25T02:47:15.487Z,24.05
2016-12-25T02:47:32.662Z,24.07
2016-12-25T02:47:49.832Z,23.98
2016-12-25T02:48:07.009Z,24.02
2016-12-25T02:48:24.207Z,23.95
2016-12-25T02:48:41.406Z,23.93
2016-12-25T02:48:59.168Z,23.87
2016-12-25T02:49:16.335Z,23.98
2016-12-25T02:49:33.514Z,24.02
2016-12-25T02:49:50.719Z,24
2016-12-25T02:50:07.889Z,24.01
2016-12-25T02:50:25.082Z,24.04
2016-12-25T02:50:42.268Z,23.89
2016-12-25T02:50:59.442Z,24.04
2016-12-25T02:51:16.640Z,24
2016-12-25T02:51:33.810Z,24
2016-12-25T02:51:51.004Z,23.97
2016-12-25T02:52:08.234Z,23.92
2016-12-25T02:52:25.420Z,23.89
2016-12-25T02:52:42.596Z,23.86
2016-12-25T02:52:59.774Z,23.89
2016-12-25T02:53:16.935Z,23.95
2016-12-25T02:53:34.126Z,23.92
2016-12-25T02:53:51.304Z,24
2016-12-25T02:54:08.470Z,23.95
2016-12-25T02:54:25.641Z,24.01
2016-12-25T02:54:42.809Z,23.98
2016-12-25T02:54:59.976Z,24
2016-12-25T02:55:17.187Z,23.93
2016-12-25T02:55:34.392Z,24
2016-12-25T02:55:51.559Z,24
2016-12-25T02:56:08.741Z,23.95
2016-12-25T02:56:25.944Z,23.97
2016-12-25T02:56:43.123Z,23.86
2016-12-25T02:57:00.299Z,23.83
2016-12-25T02:57:17.497Z,23.83
2016-12-25T02:57:34.662Z,23.82
2016-12-25T02:57:51.820Z,23.85
2016-12-25T02:58:08.996Z,23.85
2016-12-25T02:58:26.194Z,23.86
2016-12-25T02:58:43.514Z,23.87
2016-12-25T02:59:00.740Z,23.85
2016-12-25T02:59:17.936Z,23.9
2016-12-25T02:59:35.128Z,23.8
2016-12-25T02:59:52.339Z,23.95
2016-12-25T03:00:09.516Z,23.85
2016-12-25T03:00:26.700Z,23.93
2016-12-25T03:00:45.118Z,23.92
2016-12-25T03:01:02.287Z,23.87
2016-12-25T03:01:19.449Z,23.92
2016-12-25T03:01:36.643Z,23.9
2016-12-25T03:01:53.833Z,23.87
2016-12-25T03:02:11.009Z,23.93
2016-12-25T03:02:28.214Z,23.79
2016-12-25T03:02:45.384Z,23.78
2016-12-25T03:03:02.565Z,23.86
2016-12-25T03:03:19.750Z,23.8
2016-12-25T03:03:36.937Z,23.78
2016-12-25T03:03:54.123Z,23.61
2016-12-25T03:04:11.302Z,23.61
2016-12-25T03:04:28.477Z,23.65
2016-12-25T03:04:45.632Z,23.56
2016-12-25T03:05:02.796Z,23.53
2016-12-25T03:05:20.009Z,23.45
2016-12-25T03:05:37.198Z,23.52
2016-12-25T03:05:54.393Z,23.49
2016-12-25T03:06:11.597Z,23.52
2016-12-25T03:06:28.809Z,23.52
2016-12-25T03:06:45.986Z,23.45
2016-12-25T03:07:03.170Z,23.45
2016-12-25T03:07:20.381Z,23.45
2016-12-25T03:07:37.617Z,23.38
2016-12-25T03:07:54.755Z,23.38
2016-12-25T03:08:11.948Z,23.37
2016-12-25T03:08:29.140Z,23.26
2016-12-25T03:08:46.342Z,23.31
2016-12-25T03:09:03.518Z,23.34
2016-12-25T03:09:20.703Z,23.29
2016-12-25T03:09:37.865Z,23.14
2016-12-25T03:09:55.050Z,23.12
2016-12-25T03:10:12.242Z,23.22
2016-12-25T03:10:29.404Z,23.18
2016-12-25T03:10:46.609Z,23.22
2016-12-25T03:11:03.771Z,23.24
2016-12-25T03:11:20.958Z,23.26
2016-12-25T03:11:38.133Z,23.24
2016-12-25T03:11:55.311Z,23.2
2016-12-25T03:12:12.513Z,23.29
2016-12-25T03:12:29.701Z,23.22
2016-12-25T03:12:46.872Z,23.31
2016-12-25T03:13:04.060Z,23.29
2016-12-25T03:13:21.278Z,23.33
2016-12-25T03:13:38.456Z,23.33
2016-12-25T03:13:55.729Z,23.29
2016-12-25T03:14:12.898Z,23.29
2016-12-25T03:14:30.091Z,23.33
2016-12-25T03:14:47.280Z,23.33
2016-12-25T03:15:04.495Z,23.34
2016-12-25T03:15:21.690Z,23.4
2016-12-25T03:15:38.855Z,23.48
2016-12-25T03:15:56.033Z,23.48
2016-12-25T03:16:13.783Z,23.43
2016-12-25T03:16:30.972Z,23.45
2016-12-25T03:16:48.150Z,23.43
2016-12-25T03:17:05.366Z,23.48
2016-12-25T03:17:22.519Z,23.5
2016-12-25T03:17:39.706Z,23.48
2016-12-25T03:17:56.900Z,23.52
2016-12-25T03:18:14.086Z,23.49
2016-12-25T03:18:31.259Z,23.56
2016-12-25T03:18:48.460Z,23.6
2016-12-25T03:19:05.664Z,23.52
2016-12-25T03:19:22.841Z,23.48
2016-12-25T03:19:40.002Z,23.45
2016-12-25T03:19:57.215Z,23.49
2016-12-25T03:20:14.382Z,23.52
2016-12-25T03:20:31.554Z,23.43
2016-12-25T03:20:48.716Z,23.38
2016-12-25T03:21:05.874Z,23.34
2016-12-25T03:21:23.037Z,23.37
2016-12-25T03:21:40.209Z,23.27
2016-12-25T03:21:57.384Z,23.35
2016-12-25T03:22:14.560Z,23.31
2016-12-25T03:22:31.765Z,23.24
2016-12-25T03:22:49.543Z,23.18
2016-12-25T03:23:06.747Z,23.11
2016-12-25T03:23:23.931Z,23.11
2016-12-25T03:23:41.118Z,23.05
2016-12-25T03:23:58.319Z,23.17
2016-12-25T03:24:15.504Z,23.09
2016-12-25T03:24:32.681Z,23.14
2016-12-25T03:24:50.449Z,23.07
2016-12-25T03:25:07.620Z,22.99
2016-12-25T03:25:24.793Z,23.05
2016-12-25T03:25:41.997Z,23.02
2016-12-25T03:25:59.195Z,23.04
2016-12-25T03:26:16.384Z,23.02
2016-12-25T03:26:33.547Z,22.99
2016-12-25T03:26:50.723Z,22.9
2016-12-25T03:27:11.387Z,22.94
2016-12-25T03:27:28.603Z,23.04
2016-12-25T03:27:45.792Z,22.96
2016-12-25T03:28:02.965Z,22.97
2016-12-25T03:28:20.129Z,22.96
2016-12-25T03:28:37.307Z,22.9
2016-12-25T03:28:54.494Z,22.92
2016-12-25T03:29:11.660Z,22.96
2016-12-25T03:29:28.858Z,23.02
2016-12-25T03:29:46.009Z,22.89
2016-12-25T03:30:03.245Z,23
2016-12-25T03:30:20.419Z,22.99
2016-12-25T03:30:37.628Z,22.96
2016-12-25T03:30:54.810Z,22.89
2016-12-25T03:31:11.990Z,22.89
2016-12-25T03:31:29.183Z,22.9
2016-12-25T03:31:46.363Z,22.96
2016-12-25T03:32:03.553Z,22.86
2016-12-25T03:32:20.771Z,22.99
2016-12-25T03:32:37.952Z,22.96
2016-12-25T03:32:55.149Z,22.93
2016-12-25T03:33:12.309Z,22.93
2016-12-25T03:33:29.488Z,22.92
2016-12-25T03:33:46.963Z,22.9
2016-12-25T03:34:04.154Z,22.9
2016-12-25T03:34:21.328Z,22.92
2016-12-25T03:34:38.503Z,22.83
2016-12-25T03:34:55.711Z,22.83
2016-12-25T03:35:13.439Z,22.87
2016-12-25T03:35:30.618Z,22.84
2016-12-25T03:35:47.792Z,22.86
2016-12-25T03:36:04.975Z,22.81
2016-12-25T03:36:22.180Z,22.75
2016-12-25T03:36:39.349Z,22.75
2016-12-25T03:36:56.526Z,22.77
2016-12-25T03:37:13.708Z,22.75
2016-12-25T03:37:30.921Z,22.68
2016-12-25T03:37:48.071Z,22.69
2016-12-25T03:38:05.247Z,22.68
2016-12-25T03:38:22.425Z,22.67
2016-12-25T03:38:39.625Z,22.59
2016-12-25T03:38:56.835Z,22.74
2016-12-25T03:39:14.016Z,22.75
2016-12-25T03:39:31.219Z,22.71
2016-12-25T03:39:48.391Z,22.71
2016-12-25T03:40:05.550Z,22.74
2016-12-25T03:40:22.745Z,22.72
2016-12-25T03:40:39.963Z,22.79
2016-12-25T03:40:57.729Z,22.77
2016-12-25T03:41:14.927Z,22.75
2016-12-25T03:41:32.134Z,22.78
2016-12-25T03:41:49.887Z,22.71
2016-12-25T03:42:07.066Z,22.77
2016-12-25T03:42:24.250Z,22.75
2016-12-25T03:42:41.446Z,22.72
2016-12-25T03:42:58.630Z,22.78